Terminal Aerodrome Forecast
Issued by NWS

Home | Current Version | Previous Version | Text Only | Print | Product List | Glossary On
Versions: 1 2 3 4 5 6 7 8 9 10 11 12 13 14 15 16
000
FTUS46 KMTR 181723
TAFSTS
TAF
KSTS 181723Z 1818/1918 17005KT 6SM FU FEW005 SCT200
     FM190400 21004KT P6SM SCT008 BKN250
      TEMPO 1904/1906 2SM BR BKN004 OVC250
     FM190600 VRB03KT 1/2SM FG OVC003=

USA.gov is the U.S. government's official web portal to all federal, state and local government web resources and services.